Time;durP1;ratioP1;P1;durP2;ratioP2;P2;SDS_P1;SDS_P2;PMS_P1;PMS_P2;Temp;Humidity;BMP_temperature;BMP_pressure;BME280_temperature;BME280_humidity;BME280_pressure;Samples;Min_cycle;Max_cycle;Signal;HPM_P1;HPM_P2
2022/11/23 00:00:23;;;;;;;;;;;;;;;5.40;80.42;98089.91;4483424;32;34064;-67
2022/11/23 00:02:54;;;;;;;;;;;;;;;5.70;78.62;98090.09;4474427;31;35221;-67
2022/11/23 00:05:21;;;;;;;;;;;;;;;4.97;81.73;98085.34;4468698;32;32246;-67
2022/11/23 00:07:49;;;;;;;;;;;;;;;5.36;80.50;98082.19;4469481;32;34144;-66
2022/11/23 00:10:16;;;;;;;;;;;;;;;4.93;81.75;98097.16;4469091;32;35750;-66
2022/11/23 00:12:43;;;;;;;;;;;;;;;5.18;81.68;98083.66;4470549;32;32399;-66
2022/11/23 00:15:11;;;;;;;;;;;;;;;5.00;82.16;98090.41;4474612;32;33218;-65
2022/11/23 00:17:39;;;;;;;;;;;;;;;4.94;81.87;98099.66;4476244;32;34334;-64
2022/11/23 00:20:07;;;;;;;;;;;;;;;4.78;83.09;98099.16;4478656;32;34094;-65
2022/11/23 00:22:34;;;;;;;;;;;;;;;4.86;82.81;98097.63;4481661;32;34083;-66
2022/11/23 00:25:02;;;;;;;;;;;;;;;5.38;80.42;98084.72;4471787;32;33350;-65
2022/11/23 00:27:29;;;;;;;;;;;;;;;5.12;81.75;98097.41;4484467;32;34279;-64
2022/11/23 00:29:56;;;;;;;;;;;;;;;4.84;82.34;98090.75;4480358;32;34409;-67
2022/11/23 00:32:24;;;;;;;;;;;;;;;5.35;80.32;98080.50;4475042;32;34049;-65
2022/11/23 00:34:51;;;;;;;;;;;;;;;5.40;79.71;98082.78;4473828;32;33392;-67
2022/11/23 00:37:18;;;;;;;;;;;;;;;5.16;79.93;98082.91;4469921;32;35248;-65
2022/11/23 00:39:46;;;;;;;;;;;;;;;5.11;81.56;98087.75;4475265;32;34441;-65
2022/11/23 00:42:13;;;;;;;;;;;;;;;5.46;78.92;98081.47;4470907;32;34286;-67
2022/11/23 00:44:40;;;;;;;;;;;;;;;5.14;80.45;98088.34;4474868;32;31854;-66
2022/11/23 00:47:08;;;;;;;;;;;;;;;5.32;80.29;98080.72;4476041;32;33798;-67
2022/11/23 00:49:35;;;;;;;;;;;;;;;5.26;80.57;98091.00;4471309;32;35699;-66
2022/11/23 00:52:02;;;;;;;;;;;;;;;5.12;81.12;98079.66;4475433;32;34523;-65
2022/11/23 00:54:30;;;;;;;;;;;;;;;5.47;79.97;98083.16;4464197;32;32079;-66
2022/11/23 00:56:57;;;;;;;;;;;;;;;4.99;81.28;98088.72;4470134;31;34251;-66
2022/11/23 00:59:25;;;;;;;;;;;;;;;5.14;80.37;98076.91;4470754;32;33267;-67
2022/11/23 01:01:53;;;;;;;;;;;;;;;5.63;78.71;98077.44;4470146;31;34695;-66
2022/11/23 01:04:20;;;;;;;;;;;;;;;5.22;80.38;98071.00;4469478;32;33613;-66
2022/11/23 01:06:47;;;;;;;;;;;;;;;5.52;78.92;98089.78;4474204;32;35044;-65
2022/11/23 01:09:16;;;;;;;;;;;;;;;5.47;78.74;98077.84;4475195;32;34072;-64
2022/11/23 01:11:44;;;;;;;;;;;;;;;4.98;80.03;98060.53;4478797;32;34479;-66
2022/11/23 01:14:11;;;;;;;;;;;;;;;5.35;80.06;98077.84;4484873;32;33336;-66
2022/11/23 01:16:39;;;;;;;;;;;;;;;5.15;80.16;98062.69;4477242;32;33907;-64
2022/11/23 01:19:10;;;;;;;;;;;;;;;5.23;80.14;98065.56;4477010;32;34332;-64
2022/11/23 01:21:38;;;;;;;;;;;;;;;5.57;78.54;98076.97;4467217;32;33363;-66
2022/11/23 01:24:11;;;;;;;;;;;;;;;5.02;80.99;98062.81;4443931;32;821158;-66
2022/11/23 01:26:39;;;;;;;;;;;;;;;5.23;79.74;98059.41;4468799;32;35075;-65
2022/11/23 01:29:07;;;;;;;;;;;;;;;4.78;82.42;98057.59;4451639;32;33874;-65
2022/11/23 01:31:37;;;;;;;;;;;;;;;5.16;80.58;98047.59;4476178;32;34172;-64
2022/11/23 01:34:13;;;;;;;;;;;;;;;4.95;80.47;98055.47;4473097;32;33422;-65
2022/11/23 01:36:40;;;;;;;;;;;;;;;4.95;80.74;98042.22;4478615;32;33946;-65
2022/11/23 01:39:09;;;;;;;;;;;;;;;5.00;80.46;98054.12;4480343;32;34410;-64
2022/11/23 01:41:38;;;;;;;;;;;;;;;5.34;78.29;98046.97;4474343;32;34310;-65
2022/11/23 01:44:20;;;;;;;;;;;;;;;5.27;78.77;98044.94;4470750;32;33618;-65
2022/11/23 01:46:51;;;;;;;;;;;;;;;5.20;79.63;98047.25;4480132;32;34045;-65
2022/11/23 01:49:19;;;;;;;;;;;;;;;5.24;78.43;98034.59;4479647;32;34423;-65
2022/11/23 01:51:47;;;;;;;;;;;;;;;5.27;79.23;98037.84;4460040;32;34368;-65
2022/11/23 01:54:21;;;;;;;;;;;;;;;5.43;77.89;98041.91;4470518;32;33585;-64
2022/11/23 01:56:49;;;;;;;;;;;;;;;5.21;79.08;98037.47;4468473;32;33998;-65
2022/11/23 01:59:17;;;;;;;;;;;;;;;5.33;78.89;98029.38;4462383;32;32616;-63
2022/11/23 02:01:44;;;;;;;;;;;;;;;5.04;79.54;98038.81;4469505;32;34035;-65
2022/11/23 02:04:15;;;;;;;;;;;;;;;4.95;79.84;98035.09;4469118;32;34163;-64
2022/11/23 02:06:44;;;;;;;;;;;;;;;5.35;78.77;98030.09;4454823;32;32818;-65
2022/11/23 02:09:11;;;;;;;;;;;;;;;5.12;79.63;98031.09;4464287;32;34335;-65
2022/11/23 02:11:38;;;;;;;;;;;;;;;5.00;79.95;98032.91;4460084;32;33967;-64
2022/11/23 02:14:06;;;;;;;;;;;;;;;5.00;80.52;98032.91;4469458;32;32994;-65
2022/11/23 02:16:33;;;;;;;;;;;;;;;4.68;81.62;98036.28;4455503;32;34252;-65
2022/11/23 02:19:00;;;;;;;;;;;;;;;5.01;80.51;98044.34;4472100;32;34904;-63
2022/11/23 02:21:28;;;;;;;;;;;;;;;4.80;81.56;98037.13;4476863;32;35234;-63
2022/11/23 02:24:07;;;;;;;;;;;;;;;5.31;79.78;98041.09;4461532;32;32895;-64
2022/11/23 02:26:35;;;;;;;;;;;;;;;5.19;80.25;98036.75;4458025;32;33807;-64
2022/11/23 02:29:11;;;;;;;;;;;;;;;4.86;81.60;98054.38;4471751;32;34597;-65
2022/11/23 02:31:38;;;;;;;;;;;;;;;4.89;80.71;98044.38;4465842;32;35682;-65
2022/11/23 02:34:05;;;;;;;;;;;;;;;5.13;79.81;98032.78;4479447;32;33405;-63
2022/11/23 02:36:38;;;;;;;;;;;;;;;5.37;79.90;98029.97;4481791;32;32851;-63
2022/11/23 02:39:07;;;;;;;;;;;;;;;4.56;82.43;98033.72;4471493;32;35723;-64
2022/11/23 02:41:36;;;;;;;;;;;;;;;5.07;80.87;98033.25;4464686;32;34498;-63
2022/11/23 02:44:03;;;;;;;;;;;;;;;5.26;79.93;98037.94;4473461;32;33722;-64
2022/11/23 02:46:31;;;;;;;;;;;;;;;4.82;80.02;98037.88;4459117;32;33954;-63
2022/11/23 02:48:58;;;;;;;;;;;;;;;5.24;79.73;98031.94;4475197;32;34117;-65
2022/11/23 02:51:26;;;;;;;;;;;;;;;4.78;81.07;98028.44;4475825;32;34055;-64
2022/11/23 02:53:53;;;;;;;;;;;;;;;4.94;80.50;98028.09;4473838;32;33636;-66
2022/11/23 02:56:21;;;;;;;;;;;;;;;4.99;80.53;98028.56;4480354;32;34046;-63
2022/11/23 02:58:48;;;;;;;;;;;;;;;4.68;81.68;98023.03;4476213;32;34308;-63
2022/11/23 03:01:17;;;;;;;;;;;;;;;4.67;81.31;98041.72;4473151;32;34942;-65
2022/11/23 03:03:45;;;;;;;;;;;;;;;5.23;79.50;98049.66;4475647;32;32268;-63
2022/11/23 03:06:12;;;;;;;;;;;;;;;5.10;79.59;98039.19;4477198;32;34272;-62
2022/11/23 03:08:40;;;;;;;;;;;;;;;5.09;78.99;98042.78;4477474;32;34022;-64
2022/11/23 03:11:08;;;;;;;;;;;;;;;5.01;79.79;98031.09;4472418;32;34216;-63
2022/11/23 03:13:35;;;;;;;;;;;;;;;4.73;80.94;98035.94;4471392;32;34692;-65
2022/11/23 03:16:03;;;;;;;;;;;;;;;5.17;79.57;98026.28;4482330;32;34194;-64
2022/11/23 03:18:30;;;;;;;;;;;;;;;4.78;80.95;98019.66;4471253;32;33879;-64
2022/11/23 03:21:04;;;;;;;;;;;;;;;4.67;81.06;98018.69;4472505;32;33069;-63
2022/11/23 03:23:31;;;;;;;;;;;;;;;4.79;80.68;98021.38;4472798;32;33412;-63
2022/11/23 03:25:59;;;;;;;;;;;;;;;4.68;80.35;98038.09;4476925;32;34196;-65
2022/11/23 03:28:27;;;;;;;;;;;;;;;4.93;79.81;98037.00;4472887;32;33950;-63
2022/11/23 03:30:55;;;;;;;;;;;;;;;5.09;79.06;98032.19;4467169;32;34811;-63
2022/11/23 03:33:23;;;;;;;;;;;;;;;4.97;79.85;98037.59;4460558;32;35203;-62
2022/11/23 03:35:50;;;;;;;;;;;;;;;5.24;78.78;98029.28;4474154;32;33418;-62
2022/11/23 03:38:18;;;;;;;;;;;;;;;4.50;81.42;98028.94;4468703;32;34248;-63
2022/11/23 03:40:45;;;;;;;;;;;;;;;4.59;81.09;98034.37;4471936;32;32847;-63
2022/11/23 03:43:13;;;;;;;;;;;;;;;4.48;82.33;98030.84;4465395;32;33037;-63
2022/11/23 03:45:41;;;;;;;;;;;;;;;4.64;81.46;98034.81;4468781;32;34300;-62
2022/11/23 03:48:08;;;;;;;;;;;;;;;5.02;79.50;98025.69;4473224;32;35442;-63
2022/11/23 03:50:35;;;;;;;;;;;;;;;4.78;79.81;98023.12;4472056;32;33456;-65
2022/11/23 03:53:03;;;;;;;;;;;;;;;5.08;79.51;98022.53;4463227;32;34044;-66
2022/11/23 03:55:30;;;;;;;;;;;;;;;5.22;78.61;98041.81;4476377;32;33151;-65
2022/11/23 03:57:58;;;;;;;;;;;;;;;5.27;78.18;98040.47;4474028;32;32704;-65
2022/11/23 04:00:26;;;;;;;;;;;;;;;4.87;80.67;98032.19;4462206;32;33767;-63
2022/11/23 04:02:54;;;;;;;;;;;;;;;4.78;79.93;98032.91;4464237;32;34059;-64
2022/11/23 04:05:25;;;;;;;;;;;;;;;5.12;79.31;98031.09;4464809;32;32285;-61
2022/11/23 04:07:59;;;;;;;;;;;;;;;4.81;79.91;98024.72;4467364;32;32554;-63
2022/11/23 04:10:27;;;;;;;;;;;;;;;5.51;77.65;98018.22;4475077;32;32929;-64
2022/11/23 04:12:57;;;;;;;;;;;;;;;5.44;77.63;98025.00;4464604;32;34569;-65
2022/11/23 04:15:24;;;;;;;;;;;;;;;5.67;76.24;98041.72;4466768;32;34823;-63
2022/11/23 04:17:52;;;;;;;;;;;;;;;5.24;77.40;98035.44;4463588;32;34028;-63
2022/11/23 04:20:20;;;;;;;;;;;;;;;5.10;78.41;98036.53;4477542;32;35245;-62
2022/11/23 04:22:47;;;;;;;;;;;;;;;5.06;78.59;98039.53;4465768;32;32088;-63
2022/11/23 04:25:15;;;;;;;;;;;;;;;4.78;80.74;98028.44;4477089;32;35193;-64
2022/11/23 04:27:42;;;;;;;;;;;;;;;4.82;80.71;98024.63;4475825;32;34250;-63
2022/11/23 04:30:10;;;;;;;;;;;;;;;4.81;79.64;98041.47;4469607;32;32878;-63
2022/11/23 04:32:37;;;;;;;;;;;;;;;5.14;79.20;98037.13;4465500;32;34139;-64
2022/11/23 04:35:05;;;;;;;;;;;;;;;4.53;81.70;98041.94;4464803;32;34131;-63
2022/11/23 04:37:32;;;;;;;;;;;;;;;4.92;80.26;98032.69;4471986;32;34212;-65
2022/11/23 04:40:00;;;;;;;;;;;;;;;4.96;79.86;98035.94;4466017;32;33997;-63
2022/11/23 04:42:28;;;;;;;;;;;;;;;4.94;79.70;98051.94;4461363;32;32202;-65
2022/11/23 04:44:56;;;;;;;;;;;;;;;4.75;80.72;98054.34;4469586;32;32732;-63
2022/11/23 04:47:24;;;;;;;;;;;;;;;4.70;80.35;98053.88;4470178;32;35446;-63
2022/11/23 04:49:51;;;;;;;;;;;;;;;4.87;80.58;98042.78;4467414;32;33700;-62
2022/11/23 04:52:19;;;;;;;;;;;;;;;4.69;80.59;98045.09;4474805;32;33363;-65
2022/11/23 04:54:46;;;;;;;;;;;;;;;4.75;80.84;98031.38;4476810;32;33994;-63
2022/11/23 04:57:14;;;;;;;;;;;;;;;4.59;80.88;98039.66;4468902;32;35387;-63
2022/11/23 04:59:41;;;;;;;;;;;;;;;4.90;79.43;98048.69;4469490;32;35191;-64
2022/11/23 05:02:09;;;;;;;;;;;;;;;5.01;78.93;98037.25;4471016;32;33344;-63
2022/11/23 05:04:37;;;;;;;;;;;;;;;5.06;79.05;98037.72;4473193;32;35126;-66
2022/11/23 05:07:04;;;;;;;;;;;;;;;5.34;77.67;98041.66;4467477;32;33872;-64
2022/11/23 05:09:33;;;;;;;;;;;;;;;5.40;76.73;98043.00;4469985;32;35349;-64
2022/11/23 05:12:01;;;;;;;;;;;;;;;5.11;77.60;98055.94;4474002;32;32310;-67
2022/11/23 05:14:30;;;;;;;;;;;;;;;5.05;79.27;98045.81;4475789;32;35527;-62
2022/11/23 05:16:57;;;;;;;;;;;;;;;4.97;79.87;98034.97;4467588;32;34319;-65
2022/11/23 05:19:25;;;;;;;;;;;;;;;4.86;79.38;98041.94;4471056;32;33795;-63
2022/11/23 05:21:53;;;;;;;;;;;;;;;4.86;79.89;98041.94;4465734;32;32369;-64
2022/11/23 05:24:21;;;;;;;;;;;;;;;4.33;81.69;98043.44;4466974;32;33798;-63
2022/11/23 05:26:50;;;;;;;;;;;;;;;5.02;79.13;98051.34;4464816;32;34866;-61
2022/11/23 05:29:22;;;;;;;;;;;;;;;4.78;80.03;98049.66;4471697;32;33915;-64
2022/11/23 05:31:50;;;;;;;;;;;;;;;4.65;80.22;98035.66;4481125;32;33375;-62
2022/11/23 05:34:17;;;;;;;;;;;;;;;5.08;78.38;98040.28;4477446;32;32665;-61
2022/11/23 05:36:44;;;;;;;;;;;;;;;5.10;78.31;98036.53;4464221;32;35540;-63
2022/11/23 05:39:12;;;;;;;;;;;;;;;4.76;79.80;98029.56;4467720;32;34051;-63
2022/11/23 05:41:39;;;;;;;;;;;;;;;4.80;79.60;98023.88;4466451;32;33273;-63
2022/11/23 05:44:08;;;;;;;;;;;;;;;5.08;78.71;98022.53;4468228;32;33819;-63
2022/11/23 05:46:35;;;;;;;;;;;;;;;5.15;78.04;98036.16;4481570;32;34210;-62
2022/11/23 05:49:02;;;;;;;;;;;;;;;5.49;76.89;98029.00;4472596;32;32642;-63
2022/11/23 05:51:31;;;;;;;;;;;;;;;5.35;76.56;98019.47;4473258;32;35163;-62
2022/11/23 05:54:00;;;;;;;;;;;;;;;5.83;75.70;98026.22;4465723;32;35067;-61
2022/11/23 05:56:27;;;;;;;;;;;;;;;5.73;75.62;98033.25;4466936;32;34173;-62
2022/11/23 05:58:55;;;;;;;;;;;;;;;5.59;76.42;98037.88;4481258;32;35190;-62
2022/11/23 06:01:23;;;;;;;;;;;;;;;5.30;77.17;98024.31;4470847;32;31747;-63
2022/11/23 06:03:51;;;;;;;;;;;;;;;5.53;76.33;98032.22;4477548;32;34941;-60
2022/11/23 06:06:19;;;;;;;;;;;;;;;5.74;75.29;98032.28;4475677;32;34399;-62
2022/11/23 06:08:46;;;;;;;;;;;;;;;5.54;76.31;98025.94;4470644;32;32657;-63
2022/11/23 06:11:15;;;;;;;;;;;;;;;5.40;76.55;98036.84;4468182;32;34093;-62
2022/11/23 06:13:45;;;;;;;;;;;;;;;5.53;76.33;98050.81;4466744;32;33634;-63
2022/11/23 06:16:12;;;;;;;;;;;;;;;5.60;76.56;98049.34;4466457;32;34418;-62
2022/11/23 06:18:41;;;;;;;;;;;;;;;5.76;75.32;98057.72;4466789;32;32716;-63
2022/11/23 06:21:08;;;;;;;;;;;;;;;5.72;75.97;98060.78;4477616;32;34137;-63
2022/11/23 06:23:36;;;;;;;;;;;;;;;5.49;77.11;98063.47;4473036;32;32709;-62
2022/11/23 06:26:05;;;;;;;;;;;;;;;5.70;76.41;98060.88;4469916;32;34677;-61
2022/11/23 06:28:34;;;;;;;;;;;;;;;5.34;78.16;98062.91;4480566;32;33862;-62
2022/11/23 06:31:02;;;;;;;;;;;;;;;5.75;76.02;98055.22;4469953;32;33410;-62
2022/11/23 06:33:30;;;;;;;;;;;;;;;5.76;75.73;98063.03;4466341;32;34170;-62
2022/11/23 06:35:59;;;;;;;;;;;;;;;5.47;76.71;98067.22;4469553;32;34808;-62
2022/11/23 06:38:27;;;;;;;;;;;;;;;5.01;77.38;98061.12;4470075;32;34137;-61
2022/11/23 06:40:59;;;;;;;;;;;;;;;4.67;79.45;98066.41;4467799;32;33059;-62
2022/11/23 06:43:27;;;;;;;;;;;;;;;4.89;79.15;98068.22;4473933;32;34959;-62
2022/11/23 06:45:54;;;;;;;;;;;;;;;5.02;78.72;98057.50;4478167;32;35093;-64
2022/11/23 06:48:22;;;;;;;;;;;;;;;4.98;79.40;98061.38;4471268;32;35068;-62
2022/11/23 06:50:50;;;;;;;;;;;;;;;5.09;78.99;98057.84;4478182;32;34181;-63
2022/11/23 06:53:17;;;;;;;;;;;;;;;5.22;78.17;98053.25;4473745;32;33615;-62
2022/11/23 06:55:45;;;;;;;;;;;;;;;5.14;79.20;98058.34;4466363;32;34072;-62
2022/11/23 06:58:12;;;;;;;;;;;;;;;5.18;77.92;98059.78;4466050;32;34797;-64
2022/11/23 07:00:40;;;;;;;;;;;;;;;5.69;77.23;98069.00;4469975;32;33061;-62
2022/11/23 07:03:23;;;;;;;;;;;;;;;5.62;76.52;98073.94;4474958;32;33912;-62
2022/11/23 07:05:51;;;;;;;;;;;;;;;5.43;77.36;98068.44;4463665;32;33925;-63
2022/11/23 07:08:19;;;;;;;;;;;;;;;5.82;76.12;98067.00;4471818;32;32686;-62
2022/11/23 07:10:46;;;;;;;;;;;;;;;5.84;75.25;98076.53;4465848;32;32080;-62
2022/11/23 07:13:14;;;;;;;;;;;;;;;5.59;76.12;98071.53;4465846;32;34245;-64
2022/11/23 07:15:42;;;;;;;;;;;;;;;5.68;76.33;98076.12;4470519;32;34306;-62
2022/11/23 07:18:09;;;;;;;;;;;;;;;5.58;77.13;98077.81;4468504;32;34128;-63
2022/11/23 07:20:38;;;;;;;;;;;;;;;5.42;77.30;98075.53;4466154;32;32934;-63
2022/11/23 07:23:07;;;;;;;;;;;;;;;5.94;76.50;98078.44;4480586;32;33622;-62
2022/11/23 07:25:34;;;;;;;;;;;;;;;5.46;77.79;98082.31;4473362;32;34690;-63
2022/11/23 07:28:02;;;;;;;;;;;;;;;5.50;78.35;98078.44;4478700;32;35405;-63
2022/11/23 07:30:31;;;;;;;;;;;;;;;5.91;76.99;98086.66;4463355;32;34090;-62
2022/11/23 07:33:02;;;;;;;;;;;;;;;5.87;77.28;98086.03;4465979;32;32831;-62
2022/11/23 07:35:31;;;;;;;;;;;;;;;5.83;77.37;98092.59;4473262;32;35356;-62
2022/11/23 07:37:59;;;;;;;;;;;;;;;5.54;77.41;98089.63;4475117;32;34190;-63
2022/11/23 07:40:26;;;;;;;;;;;;;;;5.98;76.80;98103.81;4470754;32;33221;-64
2022/11/23 07:43:00;;;;;;;;;;;;;;;5.96;76.84;98087.97;4465884;32;34059;-62
2022/11/23 07:45:28;;;;;;;;;;;;;;;5.44;78.75;98094.00;4467164;32;34259;-61
2022/11/23 07:47:59;;;;;;;;;;;;;;;5.91;76.77;98094.63;4453327;32;34837;-62
2022/11/23 07:50:27;;;;;;;;;;;;;;;5.97;76.13;98097.66;4473180;32;33199;-61
2022/11/23 07:52:54;;;;;;;;;;;;;;;5.60;77.56;98110.37;4470363;32;35158;-62
2022/11/23 07:55:22;;;;;;;;;;;;;;;5.77;77.20;98103.69;4471691;32;33852;-61
2022/11/23 07:57:53;;;;;;;;;;;;;;;5.38;78.52;98108.59;4467022;32;33600;-61
2022/11/23 08:00:21;;;;;;;;;;;;;;;5.13;80.33;98113.19;4472773;32;33188;-62
2022/11/23 08:02:48;;;;;;;;;;;;;;;5.53;78.61;98112.69;4473966;32;34005;-69
2022/11/23 08:05:35;;;;;;;;;;;;;;;5.97;77.44;98123.34;4471844;32;34333;-66
2022/11/23 08:08:03;;;;;;;;;;;;;;;6.27;75.54;98120.00;4473891;32;33940;-64
2022/11/23 08:10:30;;;;;;;;;;;;;;;6.09;76.16;98117.03;4482132;32;33170;-64
2022/11/23 08:13:02;;;;;;;;;;;;;;;6.67;74.89;98120.13;4471142;32;34926;-65
2022/11/23 08:15:29;;;;;;;;;;;;;;;6.59;74.00;98129.75;4461851;32;34070;-64
2022/11/23 08:17:57;;;;;;;;;;;;;;;6.39;74.87;98118.13;4476028;32;35396;-63
2022/11/23 08:20:24;;;;;;;;;;;;;;;6.99;73.28;98109.41;4469387;32;33612;-66
2022/11/23 08:22:54;;;;;;;;;;;;;;;6.65;74.14;98119.44;4481134;32;34799;-64
2022/11/23 08:25:22;;;;;;;;;;;;;;;7.22;72.59;98125.22;4481466;32;34317;-63
2022/11/23 08:27:56;;;;;;;;;;;;;;;7.20;72.83;98125.34;4480891;32;32845;-66
2022/11/23 08:30:24;;;;;;;;;;;;;;;7.30;72.16;98125.41;4469163;32;33192;-64
2022/11/23 08:32:51;;;;;;;;;;;;;;;7.24;72.59;98125.94;4470304;32;32760;-63
2022/11/23 08:35:19;;;;;;;;;;;;;;;7.30;71.81;98133.37;4472708;32;34125;-64
2022/11/23 08:37:46;;;;;;;;;;;;;;;6.94;74.04;98119.63;4473749;32;34181;-63
2022/11/23 08:40:14;;;;;;;;;;;;;;;6.72;74.66;98123.25;4475206;32;33256;-64
2022/11/23 08:42:46;;;;;;;;;;;;;;;6.60;76.12;98131.44;4471064;32;33948;-64
2022/11/23 08:45:13;;;;;;;;;;;;;;;7.01;74.31;98125.25;4471511;32;32844;-63
2022/11/23 08:47:40;;;;;;;;;;;;;;;7.13;73.68;98129.53;4472962;32;33019;-64
2022/11/23 08:50:08;;;;;;;;;;;;;;;7.00;74.86;98131.56;4473466;32;32326;-64
2022/11/23 08:52:35;;;;;;;;;;;;;;;7.14;74.18;98127.72;4468196;32;32720;-63
2022/11/23 08:55:03;;;;;;;;;;;;;;;7.35;73.17;98139.16;4468047;32;33110;-64
2022/11/23 08:57:30;;;;;;;;;;;;;;;6.97;73.68;98137.16;4473627;32;33354;-63
2022/11/23 08:59:57;;;;;;;;;;;;;;;6.66;75.59;98142.38;4477090;32;33393;-64
2022/11/23 09:02:25;;;;;;;;;;;;;;;7.03;74.96;98133.97;4473214;32;35294;-64
2022/11/23 09:04:52;;;;;;;;;;;;;;;7.08;74.48;98139.72;4480229;32;34579;-64
2022/11/23 09:07:19;;;;;;;;;;;;;;;6.92;75.02;98148.16;4477405;32;34476;-64
2022/11/23 09:09:47;;;;;;;;;;;;;;;7.56;73.37;98148.91;4475226;32;34544;-64
2022/11/23 09:12:14;;;;;;;;;;;;;;;7.82;72.53;98144.78;4472065;32;34340;-64
2022/11/23 09:14:42;;;;;;;;;;;;;;;8.01;71.41;98151.13;4476269;32;35422;-64
2022/11/23 09:17:09;;;;;;;;;;;;;;;8.35;69.82;98151.59;4471428;32;33616;-66
2022/11/23 09:19:36;;;;;;;;;;;;;;;7.60;71.86;98155.63;4482271;32;32963;-64
2022/11/23 09:22:04;;;;;;;;;;;;;;;7.42;72.61;98150.94;4470712;32;33915;-64
2022/11/23 09:24:31;;;;;;;;;;;;;;;7.59;72.77;98153.97;4470674;32;33346;-66
2022/11/23 09:26:59;;;;;;;;;;;;;;;7.88;71.20;98148.72;4482005;32;35211;-66
2022/11/23 09:29:27;;;;;;;;;;;;;;;7.33;73.73;98146.44;4465965;32;34353;-64
2022/11/23 09:31:54;;;;;;;;;;;;;;;7.61;72.57;98144.03;4475475;32;33833;-63
2022/11/23 09:34:21;;;;;;;;;;;;;;;7.40;73.30;98147.56;4474975;32;35285;-64
2022/11/23 09:36:49;;;;;;;;;;;;;;;7.64;72.64;98138.41;4477510;32;33893;-63
2022/11/23 09:39:16;;;;;;;;;;;;;;;7.77;72.43;98146.16;4477150;32;34981;-63
2022/11/23 09:42:02;;;;;;;;;;;;;;;8.02;71.46;98142.16;4477383;32;34032;-64
2022/11/23 09:44:32;;;;;;;;;;;;;;;8.44;69.96;98142.78;4469565;32;34259;-66
2022/11/23 09:47:00;;;;;;;;;;;;;;;8.33;70.28;98138.41;4472016;32;33270;-64
2022/11/23 09:49:30;;;;;;;;;;;;;;;8.54;69.46;98135.63;4472120;32;34421;-64
2022/11/23 09:51:57;;;;;;;;;;;;;;;7.66;72.27;98139.13;4456904;32;32914;-65
2022/11/23 09:54:31;;;;;;;;;;;;;;;8.72;69.03;98132.25;4468765;32;34124;-65
2022/11/23 09:57:00;;;;;;;;;;;;;;;8.80;68.43;98127.06;4460920;32;34105;-62
2022/11/23 09:59:31;;;;;;;;;;;;;;;8.18;70.02;98129.12;4467532;32;32262;-65
2022/11/23 10:01:58;;;;;;;;;;;;;;;8.01;70.78;98122.66;4473588;32;34202;-62
2022/11/23 10:04:28;;;;;;;;;;;;;;;8.33;69.77;98125.06;4462804;32;34013;-61
2022/11/23 10:07:17;;;;;;;;;;;;;;;8.18;70.71;98129.12;4459404;32;35504;-62
2022/11/23 10:10:04;;;;;;;;;;;;;;;8.15;70.79;98134.72;4459224;32;33224;-62
2022/11/23 10:12:50;;;;;;;;;;;;;;;8.39;69.98;98123.69;4473140;32;35417;-63
2022/11/23 10:15:17;;;;;;;;;;;;;;;8.61;69.51;98133.25;4479780;32;34684;-65
2022/11/23 10:17:55;;;;;;;;;;;;;;;8.78;68.61;98123.66;4474352;32;35278;-64
2022/11/23 10:20:41;;;;;;;;;;;;;;;8.72;68.70;98125.06;4463824;32;33261;-65
2022/11/23 10:23:13;;;;;;;;;;;;;;;8.55;69.18;98129.31;4479726;32;35623;-64
2022/11/23 10:25:45;;;;;;;;;;;;;;;8.07;71.79;98127.44;4455419;32;33636;-65
2022/11/23 10:28:13;;;;;;;;;;;;;;;7.75;71.92;98130.31;4459917;32;32742;-63
2022/11/23 10:30:41;;;;;;;;;;;;;;;8.12;71.13;98122.53;4463179;32;33146;-63
2022/11/23 10:33:18;;;;;;;;;;;;;;;8.61;69.21;98119.91;4478748;32;33745;-62
2022/11/23 10:35:45;;;;;;;;;;;;;;;8.62;69.62;98117.09;4457170;32;35447;-65
2022/11/23 10:38:16;;;;;;;;;;;;;;;8.67;69.77;98121.16;4469280;32;35215;-64
2022/11/23 10:40:54;;;;;;;;;;;;;;;8.67;69.45;98115.81;4480824;32;33067;-64
2022/11/23 10:43:22;;;;;;;;;;;;;;;8.43;70.75;98114.44;4463625;32;34527;-65
2022/11/23 10:45:49;;;;;;;;;;;;;;;8.62;70.02;98119.75;4457183;32;35525;-63
2022/11/23 10:48:34;;;;;;;;;;;;;;;9.02;68.62;98126.72;4466344;32;32961;-64
2022/11/23 10:51:22;;;;;;;;;;;;;;;9.01;68.81;98117.00;4468519;32;33616;-62
2022/11/23 10:53:54;;;;;;;;;;;;;;;7.58;72.86;98118.50;4456002;32;34205;-63
2022/11/23 10:56:27;;;;;;;;;;;;;;;7.70;72.12;98119.22;4454917;32;34367;-62
2022/11/23 10:58:54;;;;;;;;;;;;;;;7.67;72.61;98120.34;4472161;32;33881;-62
2022/11/23 11:01:23;;;;;;;;;;;;;;;7.74;72.77;98125.13;4466803;32;32070;-64
2022/11/23 11:03:54;;;;;;;;;;;;;;;8.10;70.99;98115.66;4468440;32;33016;-64
2022/11/23 11:06:25;;;;;;;;;;;;;;;8.46;69.98;98116.81;4458655;32;33985;-62
2022/11/23 11:08:54;;;;;;;;;;;;;;;8.22;71.26;98111.03;4474328;32;33216;-64
2022/11/23 11:11:28;;;;;;;;;;;;;;;8.49;70.53;98107.69;4471603;32;33071;-61
2022/11/23 11:14:15;;;;;;;;;;;;;;;8.56;69.94;98104.31;4477440;32;34316;-64
2022/11/23 11:16:49;;;;;;;;;;;;;;;7.92;72.00;98111.00;4468947;32;34064;-66
2022/11/23 11:19:35;;;;;;;;;;;;;;;8.44;70.36;98108.09;4466884;32;35261;-62
2022/11/23 11:22:21;;;;;;;;;;;;;;;8.65;69.22;98107.97;4469330;32;33104;-64
2022/11/23 11:24:48;;;;;;;;;;;;;;;8.64;69.30;98108.97;4474344;32;33920;-73
2022/11/23 11:27:16;;;;;;;;;;;;;;;8.28;69.89;98098.00;4470106;32;33660;-65
2022/11/23 11:29:43;;;;;;;;;;;;;;;8.45;69.40;98111.63;4469426;32;34345;-64
2022/11/23 11:32:26;;;;;;;;;;;;;;;8.17;70.19;98112.28;4468201;32;34305;-64
2022/11/23 11:34:59;;;;;;;;;;;;;;;8.49;68.83;98116.53;4475923;32;34033;-66
2022/11/23 11:37:38;;;;;;;;;;;;;;;8.75;68.53;98106.13;4467642;32;35307;-64
2022/11/23 11:40:24;;;;;;;;;;;;;;;8.93;67.26;98114.25;4467354;32;34070;-64
2022/11/23 11:43:05;;;;;;;;;;;;;;;8.80;68.18;98111.03;4475219;32;33856;-64
2022/11/23 11:45:35;;;;;;;;;;;;;;;9.21;67.39;98114.28;4461070;32;34189;-64
2022/11/23 11:48:22;;;;;;;;;;;;;;;9.08;67.21;98115.47;4453427;32;35764;-63
2022/11/23 11:50:56;;;;;;;;;;;;;;;9.41;66.34;98120.41;4456659;32;36045;-66
2022/11/23 11:53:27;;;;;;;;;;;;;;;8.52;69.17;98113.59;4460524;32;32987;-63
2022/11/23 11:55:56;;;;;;;;;;;;;;;9.07;67.77;98127.13;4467842;32;32724;-64
2022/11/23 11:58:25;;;;;;;;;;;;;;;9.74;65.42;98121.66;4456005;32;34070;-65
2022/11/23 12:01:06;;;;;;;;;;;;;;;9.98;64.69;98123.75;4474869;32;34157;-64
2022/11/23 12:03:33;;;;;;;;;;;;;;;9.80;65.47;98129.91;4455689;32;33261;-65
2022/11/23 12:06:12;;;;;;;;;;;;;;;9.40;65.46;98124.06;4462230;32;32437;-63
2022/11/23 12:08:43;;;;;;;;;;;;;;;9.33;64.97;98127.31;4464870;32;34101;-64
2022/11/23 12:11:10;;;;;;;;;;;;;;;9.17;65.53;98132.41;4468122;32;34072;-63
2022/11/23 12:13:39;;;;;;;;;;;;;;;9.10;65.71;98129.50;4468240;32;33092;-64
2022/11/23 12:16:06;;;;;;;;;;;;;;;8.85;67.11;98130.94;4458345;32;33831;-64
2022/11/23 12:19:06;;;;;;;;;;;;;;;9.46;65.29;98129.66;4457382;32;34265;-65
2022/11/23 12:21:40;;;;;;;;;;;;;;;9.84;64.08;98130.44;4435474;32;34332;-64
2022/11/23 12:24:11;;;;;;;;;;;;;;;10.13;63.63;98127.59;4469531;32;33155;-63
2022/11/23 12:26:54;;;;;;;;;;;;;;;9.84;64.60;98124.28;4446284;32;33586;-65
2022/11/23 12:29:40;;;;;;;;;;;;;;;9.98;64.23;98121.06;4469731;32;34674;-65
2022/11/23 12:32:27;;;;;;;;;;;;;;;10.03;63.96;98119.63;4472509;32;34177;-66
2022/11/23 12:35:04;;;;;;;;;;;;;;;10.40;63.17;98113.38;4468195;32;31421;-66
2022/11/23 12:37:40;;;;;;;;;;;;;;;10.62;62.59;98114.69;4475207;31;34327;-65
2022/11/23 12:40:13;;;;;;;;;;;;;;;10.18;63.58;98113.78;4449209;32;32801;-66
2022/11/23 12:42:41;;;;;;;;;;;;;;;10.40;62.75;98108.03;4464860;32;34434;-69
2022/11/23 12:45:12;;;;;;;;;;;;;;;10.20;62.87;98109.09;4460945;32;33185;-63
2022/11/23 12:47:48;;;;;;;;;;;;;;;10.43;62.18;98107.72;4468910;31;32774;-62
2022/11/23 12:50:16;;;;;;;;;;;;;;;10.80;60.62;98109.34;4478307;32;35525;-64
2022/11/23 12:53:02;;;;;;;;;;;;;;;10.31;61.25;98113.44;4467258;32;35984;-63
2022/11/23 12:55:29;;;;;;;;;;;;;;;9.54;64.48;98115.56;4472924;32;33675;-63
2022/11/23 12:58:15;;;;;;;;;;;;;;;10.28;62.71;98114.59;4468847;32;34442;-62
2022/11/23 13:00:48;;;;;;;;;;;;;;;10.58;61.74;98121.38;4461505;32;32745;-63
2022/11/23 13:03:38;;;;;;;;;;;;;;;9.23;64.96;98118.50;4458916;32;34285;-65
2022/11/23 13:06:05;;;;;;;;;;;;;;;10.16;62.45;98123.78;4443641;32;32967;-63
2022/11/23 13:08:51;;;;;;;;;;;;;;;10.36;61.51;98124.50;4470621;32;34353;-63
2022/11/23 13:11:33;;;;;;;;;;;;;;;9.93;62.86;98128.72;4472785;32;33850;-63